Nearby METAR Reports

This page may be slow to load as it queries the National Weather Service for data.

KBIS - Bismarck, North Dakota, USA
Distance from station: S 10mi, 15km
Updated: Wed, 25-Apr-2018 8:52am CDT
Clear
Clear
 Wind from SW
Wind: SW 9 mph , 15 km/h
Temperature: 45°F , 7°C
Wind Chill: 40°F , 4°C
Dew Point: 30°F , -1°C
Humidity: 57%
Barometer: 30.18 inHg , 1022 hPa
Clouds: Clear
Visibility: 10 miles , 16 km
2018/04/25 13:52 KBIS 251352Z 23008KT 10SM CLR 07/M01 A3018 RMK AO2 SLP229 T00721006
KDIK - Dickinson, North Dakota, USA
Distance from station: W 95mi, 154km
Updated: Wed, 25-Apr-2018 8:56am CDT
Clear
Clear
 Wind from SW
Wind: SW 16 mph , 26 km/h
Temperature: 46°F , 8°C
Wind Chill: 39°F , 4°C
Dew Point: 28°F , -2°C
Humidity: 50%
Barometer: 30.10 inHg , 1019.3 hPa
Clouds: Clear
Visibility: 10 miles , 16 km
2018/04/25 13:56 KDIK 251356Z AUTO 22014KT 10SM CLR 08/M02 A3010 RMK AO2 SLP202 T00831022
 
KISN - Williston, North Dakota, USA
Distance from station: NNW 2mi, 2km
Updated: Wed, 25-Apr-2018 8:52am CDT
Clear
Clear
 Wind from SSW
Wind: SSW 13 mph , 20 km/h
Temperature: 45°F , 7°C
Wind Chill: 39°F , 4°C
Dew Point: 30°F , -1°C
Humidity: 57%
Barometer: 30.03 inHg , 1016.9 hPa
Clouds: Clear
Visibility: 10 miles , 16 km
2018/04/25 13:52 KISN 251352Z AUTO 20011KT 10SM CLR 07/M01 A3003 RMK AO2 SLP175 T00721006
KFAR - Fargo, North Dakota, USA
Distance from station: NNW 4mi, 7km
Updated: Wed, 25-Apr-2018 8:53am CDT
Clear
Clear
 Wind from S
Wind: S 13 mph , 20 km/h
Temperature: 45°F , 7°C
Wind Chill: 39°F , 4°C
Dew Point: 30°F , -1°C
Humidity: 57%
Barometer: 30.22 inHg , 1023.4 hPa
Clouds: Clear
Visibility: 10 miles , 16 km
2018/04/25 13:53 KFAR 251353Z 19011KT 10SM CLR 07/M01 A3022 RMK AO2 SLP241 T00671011
 
KGFK - Grand Forks, North Dakota, USA
Distance from station: NNW 76mi, 123km
Updated: Wed, 25-Apr-2018 8:53am CDT
Few Clouds
Few Clouds
 Wind from SSW
Wind: SSW 13 mph , 20 km/h
Temperature: 45°F , 7°C
Wind Chill: 39°F , 4°C
Dew Point: 36°F , 2°C
Humidity: 71%
Barometer: 30.14 inHg , 1020.7 hPa
Clouds: Few Clouds
Visibility: 10 miles , 16 km
Cloud details: Few Clouds 25000 ft
2018/04/25 13:53 KGFK 251353Z 21011KT 10SM FEW250 07/02 A3014 RMK AO2 SLP215 T00720017
KMOT - Minot, North Dakota, USA
Distance from station: E 109mi, 175km
Updated: Wed, 25-Apr-2018 8:54am CDT
Clear
Clear
 Wind from SSW
Wind: SSW 20 mph , 31 km/h, Gust: 25 mph , 41 km/h
Temperature: 48°F , 9°C
Wind Chill: 41°F , 5°C
Dew Point: 30°F , -1°C
Humidity: 50%
Barometer: 30.05 inHg , 1017.6 hPa
Clouds: Clear
Visibility: 10 miles , 16 km
2018/04/25 13:54 KMOT 251354Z 21017G22KT 10SM CLR 09/M01 A3005 RMK AO2 SLP182 T00941011